Index, Washington
Current Conditions -  °F | °C
As of 4:53 AM on Friday 19 Dec 2014 (Local Time) from KPAE Reporting Station
Broken Clouds Broken Clouds  
Wind Chill: 39°   Ceiling: 4600
Heat Index: 46°   Visibility: 10mi
Dew Point: 43°   Wind: 16mph
Humidity: 89%   Direction: 180°S
Pressure: 29.81"   Gusts: NA
Location:  47.82°N, 121.56°W
Report Text: KPAE 191253Z AUTO 18014KT 10SM FEW022 SCT037 BKN046 08/06 A2981 RMK AO2 RAB33E49 SLP094 P0001 T00780061 TSNO
Loading
Personal Weather Stations






























Interactive Weather Map New forecast layout! Learn more

10-Day Weather Forecast

Advertisements
Track Severe Weather on mobile